Time;durP1;ratioP1;P1;durP2;ratioP2;P2;SDS_P1;SDS_P2;PMS_P1;PMS_P2;Temp;Humidity;BMP_temperature;BMP_pressure;BME280_temperature;BME280_humidity;BME280_pressure;Samples;Min_cycle;Max_cycle;Signal;HPM_P1;HPM_P2
2022/01/12 00:01:47;;;;;;;15.07;12.83;;;;;;;2.53;68.49;97169.56;5038552;28;20202;-82
2022/01/12 00:04:15;;;;;;;16.47;13.50;;;;;;;2.56;68.43;97173.66;5010640;28;20220;-81
2022/01/12 00:06:41;;;;;;;15.80;12.93;;;;;;;2.59;68.54;97178.56;5007101;28;20223;-82
2022/01/12 00:09:08;;;;;;;15.47;13.43;;;;;;;2.47;68.86;97174.19;5008200;28;20203;-80
2022/01/12 00:11:38;;;;;;;16.90;13.60;;;;;;;2.56;68.59;97186.38;5019937;28;20237;-79
2022/01/12 00:14:08;;;;;;;16.50;13.80;;;;;;;2.61;68.94;97182.66;5022043;28;20199;-81
2022/01/12 00:16:39;;;;;;;15.90;13.70;;;;;;;2.65;68.71;97190.94;5027181;28;20210;-81
2022/01/12 00:19:05;;;;;;;17.10;14.20;;;;;;;2.69;68.43;97184.78;5000053;28;20200;-80
2022/01/12 00:21:32;;;;;;;16.33;13.37;;;;;;;2.72;68.09;97190.47;5008425;28;20230;-80
2022/01/12 00:24:01;;;;;;;17.13;13.93;;;;;;;2.76;68.56;97193.66;5036579;28;20222;-80
2022/01/12 00:26:41;;;;;;;16.93;14.37;;;;;;;2.72;68.57;97197.28;5032665;28;20215;-80
2022/01/12 00:34:38;;;;;;;16.30;14.50;;;;;;;2.73;69.00;97188.75;5058064;28;20201;-80
2022/01/12 00:37:05;;;;;;;16.63;13.90;;;;;;;2.74;68.68;97185.31;5047406;28;20217;-79
2022/01/12 00:39:31;;;;;;;16.97;14.57;;;;;;;2.80;68.40;97187.50;5030828;28;20643;-80
2022/01/12 00:41:58;;;;;;;16.50;13.63;;;;;;;2.73;68.46;97186.22;5041733;28;20220;-80
2022/01/12 00:44:32;;;;;;;16.77;14.73;;;;;;;2.64;68.23;97185.03;5045761;28;20222;-80
2022/01/12 00:46:59;;;;;;;16.43;14.10;;;;;;;2.52;68.95;97183.16;5041459;28;20220;-80
2022/01/12 00:49:26;;;;;;;16.40;14.17;;;;;;;2.55;68.81;97182.19;5057687;28;20206;-79
2022/01/12 00:51:54;;;;;;;15.97;14.07;;;;;;;2.61;68.54;97184.38;5053787;28;20190;-81
2022/01/12 00:54:21;;;;;;;18.30;15.00;;;;;;;2.64;68.51;97179.94;5038503;28;20202;-81
2022/01/12 00:56:48;;;;;;;17.43;14.43;;;;;;;2.52;69.18;97178.09;5050538;28;20224;-81
2022/01/12 00:59:15;;;;;;;17.43;14.37;;;;;;;2.38;69.19;97176.34;5057605;28;20220;-80
2022/01/12 01:01:42;;;;;;;18.90;15.50;;;;;;;2.30;69.64;97182.78;5049490;28;20274;-81
2022/01/12 01:04:09;;;;;;;19.90;15.70;;;;;;;2.39;69.85;97193.22;5037201;28;20229;-81
2022/01/12 01:06:36;;;;;;;19.20;14.90;;;;;;;2.50;69.18;97196.91;5046687;28;20221;-80
2022/01/12 01:09:04;;;;;;;18.93;14.77;;;;;;;2.53;68.96;97194.16;5044598;28;20225;-80
2022/01/12 01:11:31;;;;;;;19.07;15.00;;;;;;;2.59;69.04;97199.72;5038134;28;20225;-80
2022/01/12 01:13:59;;;;;;;18.73;14.73;;;;;;;2.65;68.71;97199.38;5038329;28;20213;-80
2022/01/12 01:16:41;;;;;;;18.23;14.87;;;;;;;2.68;68.38;97195.84;5048009;28;20213;-80
2022/01/12 01:27:23;;;;;;;18.17;15.47;;;;;;;2.60;68.48;97193.72;5007825;28;20233;-81
2022/01/12 01:29:52;;;;;;;16.40;13.63;;;;;;;2.60;68.36;97190.38;5016555;28;20230;-80
2022/01/12 01:32:19;;;;;;;17.03;14.43;;;;;;;2.57;68.34;97177.84;5025357;28;20206;-80
2022/01/12 01:34:48;;;;;;;18.17;14.80;;;;;;;2.53;68.39;97177.19;5030242;28;20194;-81
2022/01/12 01:37:15;;;;;;;17.37;14.70;;;;;;;2.42;69.12;97169.38;5036407;28;20217;-80
2022/01/12 01:39:43;;;;;;;16.80;14.60;;;;;;;2.39;68.93;97170.34;5020644;28;20230;-81
2022/01/12 01:42:17;;;;;;;19.67;14.80;;;;;;;2.39;68.73;97167.81;5035065;28;20206;-81
2022/01/12 01:53:20;;;;;;;21.47;14.90;;;;;;;2.34;69.34;97174.88;5015260;28;20262;-80
2022/01/12 01:55:47;;;;;;;18.37;14.80;;;;;;;2.38;68.95;97180.59;5055737;28;20221;-80
2022/01/12 01:58:14;;;;;;;18.47;14.67;;;;;;;2.41;69.08;97177.88;5041068;28;20209;-80
2022/01/12 02:00:42;;;;;;;18.60;15.63;;;;;;;2.41;69.20;97170.28;5036028;28;20622;-80
2022/01/12 02:03:08;;;;;;;18.10;14.97;;;;;;;2.44;68.94;97170.09;5034597;28;20205;-80
2022/01/12 02:05:39;;;;;;;20.17;15.70;;;;;;;2.44;69.05;97167.56;5039797;28;20214;-80
2022/01/12 02:08:06;;;;;;;18.70;15.37;;;;;;;2.45;68.83;97166.66;5050293;28;20565;-80
2022/01/12 02:10:32;;;;;;;19.13;16.03;;;;;;;2.13;69.78;97172.72;5042828;28;20627;-80
2022/01/12 02:12:59;;;;;;;20.13;15.80;;;;;;;2.12;70.08;97163.47;5055395;28;20213;-81
2022/01/12 02:15:26;;;;;;;20.47;15.60;;;;;;;2.17;69.87;97164.03;5047991;28;20197;-81
2022/01/12 02:18:02;;;;;;;19.90;15.93;;;;;;;2.17;69.82;97177.53;5034885;28;20685;-80
2022/01/12 02:39:48;;;;;;;17.10;14.73;;;;;;;2.14;69.60;97200.56;5029242;28;20637;-80
2022/01/12 02:40:10;;;;;;;19.70;15.73;;;;;;;2.12;69.49;97206.66;5045481;28;20225;-80
2022/01/12 02:42:40;;;;;;;20.50;15.60;;;;;;;2.13;69.15;97205.75;5054901;28;20193;-80
2022/01/12 02:50:44;;;;;;;20.77;16.63;;;;;;;2.01;69.16;97207.25;5040321;28;20273;-80
2022/01/12 02:55:56;;;;;;;17.90;14.70;;;;;;;2.01;69.15;97213.16;5055576;28;20220;-81
2022/01/12 02:58:22;;;;;;;19.73;15.37;;;;;;;1.99;69.61;97209.88;5050993;28;20191;-80
2022/01/12 03:01:06;;;;;;;18.30;15.23;;;;;;;1.96;69.10;97199.88;5036659;28;20230;-80
2022/01/12 03:03:35;;;;;;;18.87;15.50;;;;;;;1.94;69.16;97211.00;5040026;28;20193;-80
2022/01/12 03:06:04;;;;;;;21.60;15.87;;;;;;;1.91;69.20;97212.03;5043925;28;20233;-81
2022/01/12 03:08:36;;;;;;;19.70;15.83;;;;;;;1.93;69.10;97217.81;5039090;28;20251;-80
2022/01/12 03:11:05;;;;;;;18.40;15.33;;;;;;;1.89;69.09;97228.25;5036633;28;20287;-81
2022/01/12 03:13:31;;;;;;;18.23;14.80;;;;;;;1.89;69.28;97223.97;5038229;28;20201;-80
2022/01/12 03:15:58;;;;;;;20.50;15.17;;;;;;;1.92;69.21;97225.53;5045034;28;20630;-81
2022/01/12 03:18:24;;;;;;;21.37;16.53;;;;;;;1.91;69.17;97227.25;5036647;28;20205;-81
2022/01/12 03:20:51;;;;;;;20.10;16.00;;;;;;;1.87;69.83;97217.34;5054139;28;20240;-80
2022/01/12 03:23:17;;;;;;;19.90;16.47;;;;;;;1.87;69.69;97230.03;5053350;28;20201;-81
2022/01/12 03:25:44;;;;;;;21.13;16.47;;;;;;;1.86;70.13;97225.84;5037529;28;20693;-80
2022/01/12 03:28:12;;;;;;;20.40;16.67;;;;;;;1.86;70.34;97233.47;5034776;28;20210;-80
2022/01/12 03:30:51;;;;;;;19.87;16.43;;;;;;;1.87;70.11;97238.47;5034283;28;20242;-80
2022/01/12 03:33:31;;;;;;;22.00;16.80;;;;;;;1.89;70.32;97233.31;5034976;28;20209;-80
2022/01/12 03:36:23;;;;;;;22.17;17.33;;;;;;;1.89;70.30;97234.13;5015194;28;20226;-81
2022/01/12 03:38:50;;;;;;;22.97;16.90;;;;;;;1.93;70.48;97237.31;5026314;28;20198;-81
2022/01/12 03:41:17;;;;;;;21.30;16.07;;;;;;;1.79;70.58;97245.69;5043881;28;20256;-80
2022/01/12 03:43:46;;;;;;;21.07;16.80;;;;;;;1.81;70.36;97235.44;5038082;28;20820;-80
2022/01/12 03:46:14;;;;;;;20.40;16.87;;;;;;;1.83;70.17;97239.53;5054559;28;20236;-80
2022/01/12 03:48:41;;;;;;;22.43;17.00;;;;;;;1.87;70.17;97245.28;5050936;28;20202;-81
2022/01/12 03:51:08;;;;;;;19.83;16.33;;;;;;;1.90;69.79;97245.94;5034775;28;20222;-81
2022/01/12 03:53:34;;;;;;;22.67;17.10;;;;;;;1.91;70.17;97251.84;5047362;28;20206;-80
2022/01/12 03:56:01;;;;;;;21.40;16.70;;;;;;;1.88;70.08;97257.91;5038008;28;20226;-80
2022/01/12 03:58:27;;;;;;;23.73;18.57;;;;;;;1.76;70.27;97256.00;5048643;28;20205;-81
2022/01/12 04:00:55;;;;;;;22.13;17.17;;;;;;;1.74;70.51;97245.09;5057671;28;20229;-80
2022/01/12 04:03:21;;;;;;;21.97;16.80;;;;;;;1.78;70.62;97245.75;5051720;28;20313;-80
2022/01/12 04:08:34;;;;;;;21.97;16.97;;;;;;;1.82;70.37;97248.06;5045967;28;20301;-80
2022/01/12 04:11:01;;;;;;;23.17;17.30;;;;;;;1.76;70.05;97250.09;5019613;28;20238;-80
2022/01/12 04:13:29;;;;;;;21.70;17.53;;;;;;;1.70;70.23;97249.53;5052111;28;20190;-80
2022/01/12 04:16:00;;;;;;;24.67;17.93;;;;;;;1.51;71.20;97255.66;5034023;28;20258;-80
2022/01/12 04:18:26;;;;;;;23.53;18.07;;;;;;;1.57;70.74;97247.69;5017744;28;20853;-81
2022/01/12 04:20:52;;;;;;;21.63;17.53;;;;;;;1.59;71.00;97244.19;5017319;28;20241;-80
2022/01/12 04:23:20;;;;;;;22.53;16.17;;;;;;;1.64;70.83;97249.84;5051953;28;20289;-80
2022/01/12 04:25:48;;;;;;;23.33;17.30;;;;;;;1.70;70.36;97249.53;5037942;28;20245;-81
2022/01/12 04:28:16;;;;;;;23.60;17.13;;;;;;;1.73;70.10;97246.81;5056419;28;20204;-81
2022/01/12 04:30:43;;;;;;;23.20;17.37;;;;;;;1.71;70.03;97250.34;5057943;28;20225;-80
2022/01/12 04:33:11;;;;;;;24.47;17.90;;;;;;;1.77;70.46;97250.00;5054894;28;20247;-81
2022/01/12 04:35:45;;;;;;;23.73;17.80;;;;;;;1.76;70.20;97255.16;5058184;28;20197;-80
2022/01/12 04:38:12;;;;;;;24.07;17.33;;;;;;;1.76;70.11;97260.25;5038962;28;20201;-81
2022/01/12 04:40:39;;;;;;;25.03;18.63;;;;;;;1.70;70.31;97254.63;5025725;28;20230;-81
2022/01/12 04:43:07;;;;;;;22.60;17.50;;;;;;;1.74;70.04;97255.25;5050943;28;20268;-79
2022/01/12 04:45:40;;;;;;;23.70;17.43;;;;;;;1.66;70.14;97253.13;5047114;28;20865;-80
2022/01/12 04:48:32;;;;;;;22.97;17.10;;;;;;;1.78;69.95;97249.13;5052548;28;20263;-80
2022/01/12 04:51:00;;;;;;;24.63;18.53;;;;;;;1.58;70.86;97250.16;5056994;28;20221;-80
2022/01/12 04:53:27;;;;;;;24.70;17.60;;;;;;;1.62;70.69;97249.09;5041153;28;20205;-80
2022/01/12 04:55:54;;;;;;;24.63;18.07;;;;;;;1.46;71.47;97248.28;5044573;28;20214;-80
2022/01/12 04:58:21;;;;;;;25.50;18.33;;;;;;;1.45;71.63;97245.81;5054432;28;20209;-80
2022/01/12 05:00:50;;;;;;;25.40;18.47;;;;;;;1.26;72.87;97259.44;5054672;28;20229;-80
2022/01/12 05:06:38;;;;;;;26.40;18.37;;;;;;;1.48;72.13;97266.78;5036203;28;20248;-80
2022/01/12 05:09:13;;;;;;;23.43;16.70;;;;;;;1.62;71.72;97263.53;5040419;28;20190;-80
2022/01/12 05:14:25;;;;;;;23.77;17.07;;;;;;;1.68;71.53;97266.56;5051055;28;20573;-80
2022/01/12 05:16:52;;;;;;;24.40;18.57;;;;;;;1.63;71.19;97262.63;5038287;28;20348;-79
2022/01/12 05:19:19;;;;;;;24.10;17.60;;;;;;;1.64;71.59;97269.34;5035447;28;20202;-80
2022/01/12 05:21:46;;;;;;;23.83;18.10;;;;;;;1.65;71.48;97273.53;5036910;28;20201;-80
2022/01/12 05:24:13;;;;;;;28.80;18.43;;;;;;;1.38;72.26;97283.38;5031936;28;20208;-79
2022/01/12 05:26:40;;;;;;;25.63;19.63;;;;;;;1.12;73.36;97279.63;5022678;28;20230;-80
2022/01/12 05:29:06;;;;;;;25.07;18.23;;;;;;;1.17;73.45;97284.44;5032955;28;20198;-80
2022/01/12 05:31:33;;;;;;;26.03;18.40;;;;;;;1.21;72.86;97291.84;5052295;28;20232;-80
2022/01/12 05:34:01;;;;;;;26.37;18.27;;;;;;;0.89;74.50;97301.03;5038086;28;20575;-80
2022/01/12 05:36:30;;;;;;;25.47;18.23;;;;;;;0.89;74.36;97295.97;5056439;28;20696;-80
2022/01/12 05:38:59;;;;;;;25.90;18.90;;;;;;;1.04;74.00;97297.75;5041392;28;20612;-81
2022/01/12 05:41:25;;;;;;;25.27;18.20;;;;;;;1.04;73.88;97307.06;5023162;28;20227;-80
2022/01/12 05:43:52;;;;;;;24.37;17.53;;;;;;;1.09;73.26;97305.13;5022195;28;20233;-79
2022/01/12 05:46:23;;;;;;;25.07;17.13;;;;;;;1.16;73.27;97308.16;5024839;28;20246;-80
2022/01/12 05:51:34;;;;;;;23.40;17.03;;;;;;;1.22;72.85;97316.31;5034401;28;20320;-79
2022/01/12 05:54:02;;;;;;;23.77;17.17;;;;;;;1.17;72.45;97315.72;5033795;28;20206;-79
2022/01/12 05:56:29;;;;;;;25.13;18.43;;;;;;;1.05;73.25;97316.31;5032982;28;20218;-79
2022/01/12 05:58:56;;;;;;;24.57;17.87;;;;;;;1.02;73.29;97317.28;5034124;28;20194;-80
2022/01/12 06:01:23;;;;;;;23.60;17.33;;;;;;;1.14;73.02;97320.13;5035882;28;20230;-78
2022/01/12 06:03:49;;;;;;;23.70;18.03;;;;;;;1.27;73.16;97314.38;5043890;28;20202;-79
2022/01/12 06:06:16;;;;;;;22.67;17.00;;;;;;;1.43;72.18;97331.34;5037184;28;20229;-80
2022/01/12 06:08:42;;;;;;;25.50;18.20;;;;;;;1.31;72.63;97325.19;5035338;28;20205;-78
2022/01/12 06:11:10;;;;;;;23.57;17.10;;;;;;;1.39;72.74;97311.19;5035559;28;20252;-79
2022/01/12 06:13:36;;;;;;;23.23;17.27;;;;;;;1.43;72.67;97314.41;5040869;28;20201;-79
2022/01/12 06:16:03;;;;;;;25.20;17.30;;;;;;;1.43;72.21;97306.81;5033817;28;20222;-79
2022/01/12 06:18:32;;;;;;;20.03;17.00;;;;;;;1.41;72.62;97321.28;5035713;28;20190;-79
2022/01/12 06:20:59;;;;;;;26.63;18.37;;;;;;;1.21;75.35;97331.59;5034525;28;20233;-80
2022/01/12 06:23:25;;;;;;;23.77;18.17;;;;;;;1.12;76.41;97330.34;5033180;28;20256;-79
2022/01/12 06:25:51;;;;;;;23.67;17.93;;;;;;;1.10;74.69;97336.41;5038223;28;20222;-79
2022/01/12 06:28:38;;;;;;;26.37;18.20;;;;;;;1.23;73.89;97337.44;5043879;28;20851;-80
2022/01/12 06:31:14;;;;;;;23.53;17.63;;;;;;;1.27;78.68;97349.06;5040732;28;20296;-80
2022/01/12 06:33:45;;;;;;;23.73;17.73;;;;;;;1.35;79.62;97349.50;5036635;28;20209;-80
2022/01/12 06:36:41;;;;;;;;;;;;;;;;;;;;;
2022/01/12 06:42:22;;;;;;;25.97;18.30;;;;;;;1.32;73.54;97360.63;4984120;28;20456;-78
2022/01/12 06:44:50;;;;;;;25.40;17.93;;;;;;;1.38;73.21;97379.78;5017597;28;20190;-80
2022/01/12 06:47:19;;;;;;;23.90;17.97;;;;;;;1.47;72.89;97374.28;5037536;28;20226;-82
2022/01/12 06:49:45;;;;;;;49.07;33.43;;;;;;;1.55;72.88;97384.84;5034063;28;20234;-80
2022/01/12 06:52:12;;;;;;;82.13;53.63;;;;;;;1.66;72.86;97386.88;5033520;28;20205;-81
2022/01/12 06:54:39;;;;;;;47.70;32.90;;;;;;;1.73;72.12;97395.81;5037101;28;20196;-81
2022/01/12 06:57:06;;;;;;;27.93;20.73;;;;;;;1.67;72.11;97402.03;5036600;28;20225;-81
2022/01/12 06:59:36;;;;;;;27.90;19.63;;;;;;;1.70;72.07;97408.69;5038026;28;20255;-81
2022/01/12 07:02:05;;;;;;;26.87;18.60;;;;;;;1.64;71.84;97389.47;5037521;28;20201;-82
2022/01/12 07:04:31;;;;;;;23.13;18.47;;;;;;;1.42;72.39;97393.16;5036556;28;20259;-81
2022/01/12 07:06:58;;;;;;;26.47;19.10;;;;;;;1.46;72.89;97390.41;5043538;28;20221;-82
2022/01/12 07:09:24;;;;;;;25.00;18.23;;;;;;;1.44;73.17;97398.97;5038703;28;20201;-80
2022/01/12 07:11:51;;;;;;;25.97;19.00;;;;;;;1.45;73.29;97396.38;5034961;28;20202;-81
2022/01/12 07:14:17;;;;;;;24.63;18.57;;;;;;;1.47;73.07;97401.38;5039477;28;20758;-81
2022/01/12 07:16:44;;;;;;;26.63;19.40;;;;;;;1.39;73.71;97402.56;5035649;28;20218;-82
2022/01/12 07:19:14;;;;;;;28.07;19.13;;;;;;;1.37;73.50;97411.13;5037768;28;20194;-82
2022/01/12 07:21:41;;;;;;;23.93;18.23;;;;;;;1.33;73.80;97419.81;5033127;28;20190;-81
2022/01/12 07:24:08;;;;;;;27.23;19.77;;;;;;;1.46;73.37;97420.84;5037959;28;20201;-81
2022/01/12 07:26:35;;;;;;;26.07;19.00;;;;;;;1.48;73.43;97424.16;5037224;28;20237;-81
2022/01/12 07:29:01;;;;;;;27.03;19.67;;;;;;;1.51;73.14;97416.38;5039519;28;20198;-81
2022/01/12 07:31:28;;;;;;;26.93;19.80;;;;;;;1.54;72.74;97421.28;5037292;28;20226;-80
2022/01/12 07:33:55;;;;;;;26.83;19.50;;;;;;;1.60;72.75;97435.41;5040968;28;20206;-80
2022/01/12 07:36:23;;;;;;;27.43;20.17;;;;;;;1.42;73.16;97439.66;5038603;28;20309;-80
2022/01/12 07:38:55;;;;;;;27.83;19.43;;;;;;;1.45;72.81;97439.53;5039906;28;20198;-79
2022/01/12 07:41:22;;;;;;;29.37;21.07;;;;;;;1.55;73.00;97439.88;5038820;28;20225;-80
2022/01/12 07:43:48;;;;;;;29.13;20.63;;;;;;;1.55;72.53;97450.84;5043334;28;20568;-80
2022/01/12 07:46:16;;;;;;;28.07;19.67;;;;;;;1.38;73.50;97451.69;5036697;28;20229;-80
2022/01/12 07:48:42;;;;;;;28.63;21.20;;;;;;;1.21;74.30;97453.38;5038176;28;20210;-79
2022/01/12 07:51:09;;;;;;;29.87;20.63;;;;;;;1.35;73.99;97453.53;5042386;28;20225;-80
2022/01/12 07:53:37;;;;;;;30.00;20.57;;;;;;;1.49;73.29;97455.44;5042246;28;20197;-79
2022/01/12 07:56:04;;;;;;;27.83;20.07;;;;;;;1.63;72.84;97461.47;5039802;28;20224;-82
2022/01/12 07:58:30;;;;;;;27.97;20.20;;;;;;;1.68;72.43;97467.16;5039657;28;20208;-81
2022/01/12 08:00:57;;;;;;;28.67;20.07;;;;;;;1.69;72.22;97455.28;5032812;28;20234;-79
2022/01/12 08:03:23;;;;;;;29.77;19.80;;;;;;;1.63;71.74;97451.31;5049343;28;20205;-78
2022/01/12 08:05:50;;;;;;;29.63;20.63;;;;;;;1.64;71.85;97454.66;5045242;28;20241;-79
2022/01/12 08:08:18;;;;;;;29.33;20.13;;;;;;;1.59;72.47;97464.22;5050564;28;20193;-79
2022/01/12 08:10:46;;;;;;;32.40;21.50;;;;;;;1.53;72.76;97464.53;5038105;28;20233;-80
2022/01/12 08:13:13;;;;;;;28.63;20.90;;;;;;;1.51;73.16;97466.31;5033562;28;20207;-80
2022/01/12 08:15:39;;;;;;;30.43;20.73;;;;;;;1.45;73.24;97462.38;5036049;28;20201;-81
2022/01/12 08:18:06;;;;;;;29.47;20.50;;;;;;;1.58;73.30;97473.56;5039535;28;20206;-80
2022/01/12 08:20:33;;;;;;;29.60;21.73;;;;;;;1.64;72.88;97473.25;5038424;28;20230;-80
2022/01/12 08:23:00;;;;;;;32.43;22.23;;;;;;;1.63;73.04;97478.41;5037846;28;20194;-80
2022/01/12 08:25:27;;;;;;;31.00;22.20;;;;;;;1.61;72.63;97485.28;5036122;28;20209;-80
2022/01/12 08:27:55;;;;;;;32.27;21.97;;;;;;;1.56;73.57;97482.13;5036481;28;20552;-79
2022/01/12 08:30:28;;;;;;;31.17;22.60;;;;;;;1.59;73.00;97480.28;5043580;28;20240;-80
2022/01/12 08:32:56;;;;;;;28.67;21.03;;;;;;;1.67;72.93;97482.44;5039375;28;20186;-81
2022/01/12 08:35:22;;;;;;;30.20;20.83;;;;;;;1.70;72.69;97478.06;5039358;28;20202;-81
2022/01/12 08:37:49;;;;;;;30.13;21.07;;;;;;;1.70;72.37;97480.59;5044988;28;20225;-81
2022/01/12 08:40:18;;;;;;;32.90;22.90;;;;;;;1.77;72.19;97481.09;5044410;28;20225;-79
2022/01/12 08:42:45;;;;;;;30.87;21.90;;;;;;;1.83;72.05;97477.44;5038370;28;21572;-80
2022/01/12 08:45:14;;;;;;;32.77;20.97;;;;;;;1.90;71.79;97473.69;5037134;28;20209;-79
2022/01/12 08:47:41;;;;;;;30.50;21.17;;;;;;;1.80;72.04;97469.97;5037662;28;20214;-80
2022/01/12 08:50:09;;;;;;;31.10;21.13;;;;;;;1.71;72.67;97474.63;5039797;28;20233;-80
2022/01/12 08:52:35;;;;;;;30.47;21.53;;;;;;;1.65;72.67;97472.38;5047552;28;20198;-80
2022/01/12 08:55:02;;;;;;;38.60;21.13;;;;;;;1.56;74.08;97480.41;5039720;28;20202;-80
2022/01/12 08:57:29;;;;;;;35.90;21.70;;;;;;;1.67;73.44;97483.28;5046567;28;20225;-80
2022/01/12 08:59:56;;;;;;;30.87;22.20;;;;;;;1.63;73.38;97493.66;5040166;28;20229;-80
2022/01/12 09:02:24;;;;;;;31.87;21.47;;;;;;;1.47;73.67;97485.13;5040248;28;20631;-79
2022/01/12 09:04:51;;;;;;;29.93;21.47;;;;;;;1.56;73.30;97492.28;5037088;28;20202;-80
2022/01/12 09:07:17;;;;;;;33.63;21.67;;;;;;;1.51;73.65;97481.56;5042772;28;20217;-81
2022/01/12 09:09:44;;;;;;;31.13;21.53;;;;;;;1.63;72.99;97488.56;5037252;28;20237;-80
2022/01/12 09:12:11;;;;;;;32.83;20.53;;;;;;;1.70;73.29;97484.84;5036315;28;20206;-81
2022/01/12 09:14:38;;;;;;;28.57;21.00;;;;;;;1.60;73.97;97492.06;5036334;28;20202;-80
2022/01/12 09:17:13;;;;;;;34.47;21.40;;;;;;;1.64;73.67;97495.28;5036203;28;20705;-80
2022/01/12 09:19:40;;;;;;;27.00;20.60;;;;;;;1.74;73.33;97494.75;5036104;28;20232;-79
2022/01/12 09:22:07;;;;;;;31.73;20.67;;;;;;;1.90;72.90;97492.31;5035576;28;20286;-80
2022/01/12 09:24:33;;;;;;;28.97;20.57;;;;;;;1.90;72.41;97494.03;5036153;28;20198;-80
2022/01/12 09:27:00;;;;;;;31.27;21.67;;;;;;;1.98;71.46;97491.91;5035038;28;20218;-80
2022/01/12 09:29:26;;;;;;;27.17;19.93;;;;;;;1.98;71.01;97496.97;5036079;28;20580;-78
2022/01/12 09:31:53;;;;;;;18.97;15.47;;;;;;;1.98;69.71;97495.25;5028422;28;20261;-80
2022/01/12 09:34:19;;;;;;;15.77;13.30;;;;;;;2.01;68.90;97495.13;5039991;28;20201;-80
2022/01/12 09:36:47;;;;;;;16.97;13.03;;;;;;;1.93;68.79;97489.59;5036712;28;20225;-79
2022/01/12 09:39:14;;;;;;;18.23;13.60;;;;;;;1.63;69.40;97488.56;5035078;28;20202;-80
2022/01/12 09:41:40;;;;;;;17.87;13.43;;;;;;;1.52;69.77;97481.50;5035986;28;20202;-79
2022/01/12 09:44:07;;;;;;;15.07;13.00;;;;;;;1.41;70.22;97488.78;5035922;28;20212;-79
2022/01/12 09:46:33;;;;;;;16.87;13.83;;;;;;;1.54;70.39;97499.19;5034616;28;20321;-79
2022/01/12 09:49:03;;;;;;;17.17;13.23;;;;;;;1.60;69.34;97503.94;5035492;28;20229;-80
2022/01/12 09:51:29;;;;;;;17.70;13.87;;;;;;;1.73;69.30;97497.41;5034362;28;20248;-80
2022/01/12 09:53:58;;;;;;;18.93;13.67;;;;;;;1.74;68.95;97499.84;5036158;28;20198;-79
2022/01/12 09:56:26;;;;;;;16.47;13.67;;;;;;;1.53;69.38;97498.34;5035615;28;20218;-78
2022/01/12 09:58:55;;;;;;;18.07;13.43;;;;;;;1.51;69.87;97494.25;5036874;28;20198;-80
2022/01/12 10:01:26;;;;;;;16.70;13.67;;;;;;;1.48;69.47;97496.94;5029184;28;20334;-79
2022/01/12 10:03:52;;;;;;;16.33;13.57;;;;;;;1.46;69.67;97493.63;5036717;28;20217;-79
2022/01/12 10:06:19;;;;;;;17.20;13.83;;;;;;;1.24;70.44;97488.75;5039014;28;20258;-79
2022/01/12 10:08:45;;;;;;;17.37;13.40;;;;;;;1.37;70.00;97479.66;5033129;28;20202;-79
2022/01/12 10:11:15;;;;;;;17.43;13.33;;;;;;;1.54;69.64;97481.41;5028483;28;20223;-80
2022/01/12 10:13:42;;;;;;;17.83;12.97;;;;;;;1.66;68.77;97481.63;5027590;28;20751;-80
2022/01/12 10:16:14;;;;;;;15.93;12.67;;;;;;;1.72;68.25;97488.94;5029434;28;20926;-80
2022/01/12 10:18:50;;;;;;;18.60;14.20;;;;;;;1.72;68.13;97488.94;5033669;28;20198;-80
2022/01/12 10:21:34;;;;;;;15.90;12.10;;;;;;;1.80;67.99;97490.28;5034494;28;20237;-80
2022/01/12 10:24:04;;;;;;;16.37;12.90;;;;;;;1.78;67.87;97487.00;5033408;28;20623;-80
2022/01/12 10:26:36;;;;;;;14.87;12.37;;;;;;;1.83;67.51;97473.19;5035289;28;20230;-80
2022/01/12 10:29:09;;;;;;;17.83;13.67;;;;;;;1.90;67.57;97482.16;5036911;28;20761;-80
2022/01/12 10:31:47;;;;;;;16.50;13.03;;;;;;;1.88;66.89;97476.31;5035400;28;20224;-80
2022/01/12 10:34:13;;;;;;;17.90;13.33;;;;;;;1.82;67.22;97481.69;5040416;28;20652;-80
2022/01/12 10:36:41;;;;;;;16.30;12.90;;;;;;;1.93;67.57;97481.97;5037227;28;20209;-79
2022/01/12 10:39:09;;;;;;;16.47;12.97;;;;;;;2.00;66.98;97483.31;5036402;28;20194;-80
2022/01/12 10:41:42;;;;;;;37.67;25.97;;;;;;;2.01;67.24;97476.50;5035246;28;20233;-79
2022/01/12 10:44:19;;;;;;;20.40;15.13;;;;;;;2.10;66.87;97470.16;5040537;28;20850;-80
2022/01/12 10:46:46;;;;;;;17.07;13.03;;;;;;;2.13;66.51;97465.72;5038864;28;20233;-81
2022/01/12 10:49:19;;;;;;;17.23;13.03;;;;;;;2.21;66.24;97471.25;5044474;28;20636;-80
2022/01/12 10:51:55;;;;;;;17.83;13.47;;;;;;;2.27;66.31;97472.66;5047327;28;20206;-80
2022/01/12 10:54:22;;;;;;;17.40;13.03;;;;;;;2.31;66.22;97485.09;5048156;28;20205;-79
2022/01/12 10:56:50;;;;;;;18.60;13.17;;;;;;;2.32;66.06;97484.22;5047413;28;20236;-79
2022/01/12 10:59:17;;;;;;;16.67;14.03;;;;;;;2.32;65.97;97484.22;5046831;28;20210;-81
2022/01/12 11:01:44;;;;;;;17.23;13.60;;;;;;;2.31;66.26;97472.41;5051485;28;20190;-80
2022/01/12 11:04:11;;;;;;;15.57;13.30;;;;;;;2.36;65.93;97472.97;5049328;28;20252;-80
2022/01/12 11:06:38;;;;;;;15.63;12.93;;;;;;;2.35;65.81;97471.34;5050607;28;20226;-79
2022/01/12 11:09:05;;;;;;;21.33;14.17;;;;;;;2.25;65.63;97472.72;5052741;28;20201;-80
2022/01/12 11:11:31;;;;;;;16.90;14.00;;;;;;;2.32;66.22;97475.75;5047603;28;20240;-79
2022/01/12 11:14:00;;;;;;;15.67;13.13;;;;;;;2.04;65.44;97478.91;5047164;28;20195;-79
2022/01/12 11:16:28;;;;;;;20.57;13.93;;;;;;;2.12;66.13;97476.78;5040337;28;20237;-80
2022/01/12 11:18:58;;;;;;;16.13;13.33;;;;;;;1.86;65.83;97480.66;5037846;28;20654;-80
2022/01/12 11:21:31;;;;;;;17.07;13.73;;;;;;;2.01;65.82;97474.78;5039489;28;20290;-79
2022/01/12 11:23:59;;;;;;;17.07;14.03;;;;;;;2.21;65.50;97476.31;5043716;28;20808;-81
2022/01/12 11:26:28;;;;;;;18.70;14.30;;;;;;;2.28;64.91;97464.94;5039457;28;20241;-80
2022/01/12 11:28:55;;;;;;;16.60;13.83;;;;;;;2.32;65.46;97465.59;5035657;28;20201;-80
2022/01/12 11:31:27;;;;;;;16.60;13.27;;;;;;;2.37;64.90;97474.63;5046174;28;20859;-80
2022/01/12 11:33:54;;;;;;;18.13;13.67;;;;;;;2.55;64.94;97472.84;5039287;28;20202;-80
2022/01/12 11:36:24;;;;;;;15.03;12.37;;;;;;;2.71;64.22;97471.13;5045748;28;20213;-80
2022/01/12 11:39:01;;;;;;;16.03;13.13;;;;;;;2.70;63.87;97464.41;5039887;28;20298;-81
2022/01/12 11:41:30;;;;;;;17.17;13.50;;;;;;;2.56;63.76;97448.25;5041777;28;20218;-79
2022/01/12 11:44:03;;;;;;;23.67;16.87;;;;;;;2.57;63.97;97452.44;5039480;28;20206;-79
2022/01/12 11:46:44;;;;;;;25.80;19.60;;;;;;;2.30;64.01;97454.72;5045839;28;20230;-80
2022/01/12 11:49:11;;;;;;;17.63;14.13;;;;;;;2.32;63.83;97452.88;5038803;28;20205;-80
2022/01/12 11:51:40;;;;;;;18.47;12.97;;;;;;;2.21;64.08;97435.66;5037257;28;20213;-80
2022/01/12 11:54:09;;;;;;;16.87;12.77;;;;;;;2.12;63.79;97433.59;5038301;28;20245;-81
2022/01/12 11:56:37;;;;;;;17.80;13.20;;;;;;;2.35;63.73;97442.56;5044037;28;20245;-80
2022/01/12 11:59:11;;;;;;;18.80;14.13;;;;;;;2.49;63.69;97452.03;5041885;28;20551;-80
2022/01/12 12:01:44;;;;;;;17.87;13.40;;;;;;;2.64;62.26;97451.22;5039972;28;20230;-80
2022/01/12 12:04:22;;;;;;;20.37;13.30;;;;;;;2.42;63.08;97452.34;5038078;28;20205;-78
2022/01/12 12:06:49;;;;;;;20.20;14.23;;;;;;;2.35;63.73;97461.19;5037038;28;20229;-79
2022/01/12 12:09:18;;;;;;;18.40;12.90;;;;;;;2.82;75.80;97459.56;5035952;28;20198;-79
2022/01/12 12:11:51;;;;;;;14.97;12.20;;;;;;;3.63;78.25;97451.63;5034420;28;20241;-79
2022/01/12 12:14:18;;;;;;;15.57;12.47;;;;;;;4.40;68.70;97453.88;5032758;28;20198;-78
2022/01/12 12:16:47;;;;;;;16.80;13.87;;;;;;;4.95;67.58;97455.59;5033354;28;20612;-82
2022/01/12 12:19:14;;;;;;;21.27;15.47;;;;;;;4.93;60.09;97461.69;5037909;28;20208;-79
2022/01/12 12:21:47;;;;;;;20.33;16.00;;;;;;;4.64;60.27;97463.47;5038391;28;20191;-80
2022/01/12 12:24:15;;;;;;;21.60;16.40;;;;;;;4.28;61.09;97469.06;5034947;28;20209;-80
2022/01/12 12:26:46;;;;;;;26.27;16.87;;;;;;;3.90;61.29;97476.41;5035978;28;20377;-80
2022/01/12 12:29:15;;;;;;;21.10;16.37;;;;;;;3.68;62.04;97482.72;5031248;28;20194;-80
2022/01/12 12:31:46;;;;;;;23.07;16.00;;;;;;;3.59;62.41;97490.09;5038931;28;20217;-80
2022/01/12 12:34:14;;;;;;;21.87;16.90;;;;;;;3.46;62.64;97488.19;5038700;28;20190;-79
2022/01/12 12:36:40;;;;;;;20.60;15.67;;;;;;;3.35;62.41;97482.09;5038070;28;20222;-79